Time;durP1;ratioP1;P1;durP2;ratioP2;P2;SDS_P1;SDS_P2;PMS_P1;PMS_P2;Temp;Humidity;BMP_temperature;BMP_pressure;BME280_temperature;BME280_humidity;BME280_pressure;Samples;Min_cycle;Max_cycle;Signal;HPM_P1;HPM_P2
2023/01/29 00:03:06;;;;;;;11.90;7.30;;;;;;;2.78;62.17;99886.63;231771;1196;138439;-72
2023/01/29 00:08:10;;;;;;;11.00;6.80;;;;;;;2.73;62.16;99886.73;232817;1199;137839;-72
2023/01/29 00:13:13;;;;;;;8.00;5.80;;;;;;;2.72;61.73;99885.35;232270;1198;137926;-73
2023/01/29 00:18:16;;;;;;;7.40;5.50;;;;;;;2.73;60.78;99888.49;231408;1199;138234;-72
2023/01/29 00:23:19;;;;;;;8.80;6.20;;;;;;;2.68;60.13;99893.30;233744;1198;137660;-72
2023/01/29 00:28:23;;;;;;;8.70;6.20;;;;;;;2.66;60.06;99890.88;232354;1196;137766;-71
2023/01/29 00:33:28;;;;;;;10.60;7.10;;;;;;;2.66;59.91;99899.11;234927;1196;138084;-72
2023/01/29 00:38:33;;;;;;;10.20;6.80;;;;;;;2.67;60.08;99898.05;234344;1199;138518;-71
2023/01/29 00:48:58;;;;;;;11.50;7.80;;;;;;;2.65;60.87;99900.88;229193;1199;138777;-70
2023/01/29 00:54:05;;;;;;;11.30;7.80;;;;;;;2.63;61.33;99907.58;233781;1196;138214;-72
2023/01/29 00:59:08;;;;;;;;;;;;;;;2.63;61.30;99909.69;234333;1195;138168;-70
2023/01/29 01:04:13;;;;;;;13.20;8.50;;;;;;;2.60;60.94;99902.89;232883;1195;124357;-70
2023/01/29 01:14:41;;;;;;;12.20;7.80;;;;;;;2.60;60.69;99911.48;233494;1196;138398;-71
2023/01/29 01:19:45;;;;;;;11.90;8.30;;;;;;;2.56;60.78;99913.27;233118;1193;138323;-71
2023/01/29 01:24:49;;;;;;;12.50;8.20;;;;;;;2.54;61.00;99913.14;232400;1198;138159;-71
2023/01/29 01:29:52;;;;;;;15.20;8.50;;;;;;;2.55;60.93;99915.92;232547;1195;138176;-70
2023/01/29 01:34:55;;;;;;;12.40;7.70;;;;;;;2.49;60.37;99912.86;234993;1196;138826;-70
2023/01/29 01:39:59;;;;;;;12.80;8.00;;;;;;;2.41;60.18;99915.43;232781;1196;138441;-71
2023/01/29 01:45:06;;;;;;;12.30;7.80;;;;;;;2.38;60.16;99917.77;233888;1196;138147;-71
2023/01/29 01:50:31;;;;;;;11.80;7.50;;;;;;;2.35;60.14;99917.81;233476;1195;138339;-71
2023/01/29 01:55:38;;;;;;;11.10;7.40;;;;;;;2.40;60.39;99918.77;234694;1198;138604;-71
2023/01/29 02:00:42;;;;;;;9.20;6.10;;;;;;;2.46;59.87;99914.14;235055;1196;138242;-70
2023/01/29 02:11:08;;;;;;;10.10;6.80;;;;;;;2.46;59.25;99892.60;234070;1193;138994;-70
2023/01/29 02:16:11;;;;;;;10.10;6.40;;;;;;;2.38;58.90;99895.17;234873;1193;138219;-71
2023/01/29 02:21:59;;;;;;;9.00;6.00;;;;;;;2.32;58.76;99885.28;234742;1193;138494;-69
2023/01/29 02:27:29;;;;;;;11.70;7.00;;;;;;;2.37;58.08;99874.69;232761;1193;138357;-72
2023/01/29 02:32:53;;;;;;;11.00;7.90;;;;;;;2.37;58.08;99876.45;232343;1196;138200;-70
2023/01/29 02:38:11;;;;;;;12.10;7.80;;;;;;;2.42;58.15;99876.73;234632;1193;139147;-70
2023/01/29 02:43:31;;;;;;;13.30;8.80;;;;;;;2.41;58.45;99869.04;233739;1192;138203;-69
2023/01/29 02:48:42;;;;;;;14.20;8.90;;;;;;;2.26;58.63;99870.65;233461;1193;138299;-70
2023/01/29 02:54:15;;;;;;;15.40;10.00;;;;;;;2.03;58.77;99871.16;233210;1195;138360;-71
2023/01/29 02:59:38;;;;;;;16.90;10.70;;;;;;;1.99;58.91;99869.83;231761;1199;138630;-71
2023/01/29 03:04:52;;;;;;;15.10;10.00;;;;;;;1.97;59.10;99867.75;233744;1196;138605;-69
2023/01/29 03:09:56;;;;;;;17.50;9.80;;;;;;;1.93;58.65;99874.80;234004;1197;140482;-72
2023/01/29 03:15:10;;;;;;;16.30;10.30;;;;;;;1.90;58.45;99880.61;232112;1199;138314;-71
2023/01/29 03:20:20;;;;;;;17.10;10.50;;;;;;;1.92;58.41;99889.69;233714;1196;138613;-69
2023/01/29 03:36:25;;;;;;;14.70;10.40;;;;;;;1.95;58.07;99899.09;232602;1196;139699;-69
2023/01/29 03:41:40;;;;;;;15.00;10.40;;;;;;;1.99;57.83;99911.64;233731;1197;138523;-71
2023/01/29 03:47:07;;;;;;;14.70;9.50;;;;;;;1.96;57.75;99906.27;235232;1193;139012;-70
2023/01/29 03:52:20;;;;;;;15.70;9.60;;;;;;;1.86;57.70;99906.91;235138;1197;139424;-71
2023/01/29 03:57:36;;;;;;;15.30;9.70;;;;;;;1.90;57.53;99891.12;232089;1196;139105;-72
2023/01/29 04:03:19;;;;;;;11.80;8.30;;;;;;;1.75;57.42;99890.96;235019;1193;138366;-70
2023/01/29 04:08:27;;;;;;;12.00;8.70;;;;;;;1.68;57.44;99891.20;234322;1193;138368;-71
2023/01/29 04:13:33;;;;;;;15.40;9.20;;;;;;;1.66;57.76;99891.06;233911;1193;138113;-71
2023/01/29 04:18:37;;;;;;;13.70;9.60;;;;;;;1.67;58.02;99884.77;234530;1196;138454;-70
2023/01/29 04:23:42;;;;;;;15.40;9.90;;;;;;;1.69;57.97;99868.65;233293;1197;139485;-70
2023/01/29 04:29:05;;;;;;;16.20;10.70;;;;;;;1.65;57.72;99869.04;232483;1196;138858;-71
2023/01/29 04:34:11;;;;;;;15.40;11.00;;;;;;;1.65;58.43;99873.60;234537;1196;139142;-70
2023/01/29 04:39:21;;;;;;;16.50;11.30;;;;;;;1.67;58.49;99859.23;233477;1196;138442;-70
2023/01/29 04:44:36;;;;;;;17.70;11.80;;;;;;;1.69;58.96;99843.47;233221;1193;138643;-70
2023/01/29 04:49:48;;;;;;;16.90;11.70;;;;;;;1.68;59.28;99828.78;232494;1197;138438;-72
2023/01/29 04:55:03;;;;;;;17.50;11.50;;;;;;;1.68;59.51;99823.35;232675;1193;138830;-70
2023/01/29 05:00:23;;;;;;;19.50;12.80;;;;;;;1.66;59.78;99823.04;234091;1193;140316;-70
2023/01/29 05:12:10;;;;;;;13.90;9.10;;;;;;;1.70;59.41;99814.41;234603;1196;138350;-71
2023/01/29 05:17:17;;;;;;;12.10;8.30;;;;;;;1.66;59.31;99811.33;233535;1193;138534;-70
2023/01/29 05:22:22;;;;;;;10.80;7.30;;;;;;;1.60;59.16;99822.76;230943;1196;140999;-70
2023/01/29 05:32:54;;;;;;;12.20;7.80;;;;;;;1.32;59.41;99834.66;231684;1193;138187;-71
2023/01/29 05:37:58;;;;;;;10.60;7.40;;;;;;;1.25;59.67;99838.76;231772;1197;138140;-70
2023/01/29 05:43:01;;;;;;;11.90;8.00;;;;;;;1.22;59.67;99841.41;231995;1196;138517;-72
2023/01/29 05:48:05;;;;;;;11.30;8.40;;;;;;;1.21;59.68;99846.30;231919;1194;138946;-70
2023/01/29 05:53:08;;;;;;;11.70;7.30;;;;;;;1.18;59.37;99855.95;231356;1197;138509;-70
2023/01/29 05:58:12;;;;;;;10.30;7.40;;;;;;;1.13;58.61;99863.87;234078;1195;139329;-71
2023/01/29 06:03:15;;;;;;;10.50;7.00;;;;;;;1.15;57.97;99872.06;231370;1193;138434;-70
2023/01/29 06:08:19;;;;;;;9.50;6.90;;;;;;;1.27;57.25;99873.86;232475;1193;138255;-70
2023/01/29 06:13:22;;;;;;;10.50;7.50;;;;;;;1.34;56.76;99872.73;232471;1193;139541;-70
2023/01/29 06:18:25;;;;;;;11.40;7.90;;;;;;;1.36;56.57;99870.27;234181;1193;139039;-70
2023/01/29 06:23:30;;;;;;;9.40;7.20;;;;;;;1.28;56.54;99881.36;231485;1193;138010;-71
2023/01/29 06:28:33;;;;;;;10.60;7.20;;;;;;;1.19;56.80;99885.66;234301;1192;138133;-70
2023/01/29 06:33:36;;;;;;;8.70;5.90;;;;;;;1.18;56.61;99889.17;233141;1193;138596;-70
2023/01/29 06:38:40;;;;;;;9.40;6.30;;;;;;;1.16;56.25;99895.83;232588;1197;138240;-70
2023/01/29 06:43:44;;;;;;;8.70;5.30;;;;;;;1.01;55.91;99898.93;234996;1194;138018;-71
2023/01/29 06:48:48;;;;;;;11.10;5.80;;;;;;;0.93;55.99;99907.56;234134;1196;138082;-70
2023/01/29 06:53:53;;;;;;;7.70;5.30;;;;;;;0.96;55.63;99908.24;234359;1193;138642;-71
2023/01/29 06:58:56;;;;;;;7.30;5.40;;;;;;;0.98;55.51;99908.41;235025;1193;138146;-70
2023/01/29 07:04:00;;;;;;;7.70;5.40;;;;;;;1.01;55.43;99895.45;232347;1193;137918;-72
2023/01/29 07:09:03;;;;;;;9.70;6.00;;;;;;;1.04;55.30;99893.30;233352;1195;137933;-71
2023/01/29 07:14:07;;;;;;;8.20;5.20;;;;;;;1.05;55.10;99907.12;232227;1196;138298;-71
2023/01/29 07:19:14;;;;;;;7.50;5.10;;;;;;;1.01;55.02;99916.42;232330;1193;138423;-70
2023/01/29 07:24:18;;;;;;;8.70;5.40;;;;;;;0.96;54.93;99912.97;233580;1193;138390;-69
2023/01/29 07:29:21;;;;;;;7.50;4.60;;;;;;;0.88;55.02;99911.46;234508;1193;138591;-69
2023/01/29 07:34:24;;;;;;;7.50;4.80;;;;;;;0.83;55.06;99913.77;234440;1193;139255;-69
2023/01/29 07:39:28;;;;;;;7.20;4.50;;;;;;;0.80;54.91;99917.30;232456;1193;139039;-69
2023/01/29 07:44:31;;;;;;;6.80;4.30;;;;;;;0.86;54.75;99926.85;233788;1193;138991;-70
2023/01/29 07:49:34;;;;;;;8.10;4.70;;;;;;;0.85;54.26;99931.23;231011;1194;138302;-69
2023/01/29 07:54:38;;;;;;;7.50;4.80;;;;;;;0.84;54.42;99934.02;232559;1193;138393;-70
2023/01/29 07:59:41;;;;;;;5.80;3.50;;;;;;;0.85;54.22;99946.08;234104;1193;139090;-69
2023/01/29 08:04:45;;;;;;;7.20;4.30;;;;;;;0.82;53.92;99947.67;234927;1193;138523;-71
2023/01/29 08:09:48;;;;;;;6.40;4.30;;;;;;;0.87;53.80;99942.74;232606;1193;139278;-69
2023/01/29 08:14:51;;;;;;;7.80;4.40;;;;;;;0.92;53.84;99942.19;232578;1193;137943;-71
2023/01/29 08:19:55;;;;;;;7.20;4.80;;;;;;;0.96;54.21;99944.93;234904;1193;138178;-66
2023/01/29 08:24:58;;;;;;;7.90;5.50;;;;;;;1.06;54.33;99959.70;234269;1193;137790;-67
2023/01/29 08:30:11;;;;;;;5.50;4.00;;;;;;;1.14;54.51;99970.11;233137;1193;138165;-68
2023/01/29 08:35:14;;;;;;;6.20;3.60;;;;;;;1.22;53.54;99980.02;233340;1193;138612;-71
2023/01/29 08:40:18;;;;;;;6.40;4.00;;;;;;;1.14;53.54;99980.60;233124;1193;140235;-68
2023/01/29 08:45:21;;;;;;;7.70;4.30;;;;;;;1.17;53.70;99977.95;233922;1193;139030;-69
2023/01/29 08:50:25;;;;;;;7.30;4.60;;;;;;;1.33;53.76;99969.42;231757;1193;138275;-69
2023/01/29 08:55:29;;;;;;;5.80;4.30;;;;;;;1.42;53.30;99958.13;232424;1193;138264;-70
2023/01/29 09:00:33;;;;;;;6.80;4.70;;;;;;;1.43;52.94;99965.65;231113;1193;138022;-71
2023/01/29 09:05:39;;;;;;;11.20;5.00;;;;;;;1.47;52.98;99957.39;233127;1193;137984;-69
2023/01/29 09:10:42;;;;;;;12.30;7.10;;;;;;;1.56;52.80;99946.10;234162;1193;138630;-70
2023/01/29 09:15:45;;;;;;;11.50;4.80;;;;;;;1.55;52.84;99945.23;234979;1192;138600;-69
2023/01/29 09:20:49;;;;;;;10.20;5.00;;;;;;;1.50;53.25;99946.52;232339;1193;138068;-69
2023/01/29 09:25:52;;;;;;;10.40;5.00;;;;;;;1.46;53.33;99962.99;232849;1193;137956;-69
2023/01/29 09:31:00;;;;;;;9.80;5.30;;;;;;;1.46;53.95;99957.92;233337;1192;138143;-69
2023/01/29 09:36:05;;;;;;;11.50;5.60;;;;;;;1.49;54.12;99953.17;234459;1192;138493;-67
2023/01/29 09:41:31;;;;;;;10.90;5.20;;;;;;;1.41;54.13;99934.55;231158;1193;138416;-69
2023/01/29 09:46:40;;;;;;;9.60;5.40;;;;;;;1.43;54.08;99921.77;234625;1193;138979;-69
2023/01/29 09:51:51;;;;;;;8.50;5.30;;;;;;;1.46;54.08;99911.94;234024;1194;137613;-70
2023/01/29 09:56:56;;;;;;;12.40;5.60;;;;;;;1.51;54.12;99899.83;235219;1193;138277;-68
2023/01/29 10:02:23;;;;;;;7.60;5.10;;;;;;;1.48;54.42;99902.81;232259;1194;138450;-73
2023/01/29 10:07:55;;;;;;;10.40;6.70;;;;;;;1.48;54.90;99896.70;232381;1196;138116;-68
2023/01/29 10:13:17;;;;;;;12.10;6.40;;;;;;;1.56;55.21;99892.07;235076;1194;139486;-69
2023/01/29 10:18:40;;;;;;;8.80;6.00;;;;;;;1.46;54.98;99894.98;234530;1192;138284;-68
2023/01/29 10:23:52;;;;;;;9.40;6.70;;;;;;;1.39;55.46;99894.53;231593;1193;138485;-69
2023/01/29 10:29:00;;;;;;;10.40;7.10;;;;;;;1.36;55.73;99887.40;233096;1193;138093;-68
2023/01/29 10:34:15;;;;;;;12.30;7.20;;;;;;;1.33;55.78;99870.11;232803;1193;138600;-69
2023/01/29 10:39:24;;;;;;;10.90;7.10;;;;;;;1.30;56.15;99858.27;231888;1193;138498;-68
2023/01/29 10:44:42;;;;;;;16.70;8.10;;;;;;;1.82;66.63;99846.34;235113;1193;139385;-67
2023/01/29 10:49:57;;;;;;;10.40;6.80;;;;;;;3.17;58.75;99819.34;234603;1193;138874;-68
2023/01/29 10:55:23;;;;;;;12.90;7.50;;;;;;;2.79;55.39;99800.44;234415;1193;139879;-70
2023/01/29 11:00:32;;;;;;;10.60;7.60;;;;;;;2.49;54.79;99783.61;234918;1193;138408;-67
2023/01/29 11:05:43;;;;;;;13.40;8.20;;;;;;;2.28;54.98;99779.77;232387;1193;138215;-70
2023/01/29 11:11:11;;;;;;;15.10;9.90;;;;;;;2.11;55.01;99772.70;232991;1193;139140;-69
2023/01/29 11:16:16;;;;;;;17.10;10.90;;;;;;;1.92;55.59;99751.81;234375;1194;139014;-69
2023/01/29 11:21:23;;;;;;;17.90;10.70;;;;;;;1.80;55.94;99741.34;234634;1196;138360;-70
2023/01/29 11:26:28;;;;;;;15.70;11.20;;;;;;;1.65;56.35;99741.20;233261;1193;138494;-68
2023/01/29 11:31:38;;;;;;;16.20;11.30;;;;;;;1.48;56.19;99732.52;232322;1194;138791;-67
2023/01/29 11:36:43;;;;;;;16.80;11.00;;;;;;;1.48;56.70;99722.39;233938;1193;138490;-67
2023/01/29 11:41:58;;;;;;;15.40;9.60;;;;;;;1.50;56.20;99724.27;234935;1193;138668;-72
2023/01/29 11:47:14;;;;;;;16.60;9.40;;;;;;;1.48;56.24;99718.00;234476;1194;138702;-70
2023/01/29 11:52:24;;;;;;;14.50;9.70;;;;;;;1.45;56.38;99701.45;234573;1193;139302;-70
2023/01/29 11:57:37;;;;;;;12.20;8.50;;;;;;;1.48;55.55;99696.85;232082;1195;138753;-71
2023/01/29 12:02:45;;;;;;;11.40;8.50;;;;;;;1.45;54.45;99697.42;232546;1193;138199;-71
2023/01/29 12:07:54;;;;;;;10.60;7.80;;;;;;;1.51;53.44;99687.73;233716;1196;138092;-71
2023/01/29 12:13:18;;;;;;;14.10;8.80;;;;;;;1.54;53.44;99677.19;235284;1194;138101;-72
2023/01/29 12:18:38;;;;;;;11.50;7.10;;;;;;;1.52;53.81;99682.27;234609;1193;138995;-71
2023/01/29 12:24:07;;;;;;;12.20;6.90;;;;;;;1.45;53.80;99677.14;235046;1193;139157;-71
2023/01/29 12:29:31;;;;;;;12.90;7.40;;;;;;;1.46;53.48;99683.42;234493;1193;138172;-71
2023/01/29 12:34:54;;;;;;;11.90;7.60;;;;;;;1.59;52.61;99678.49;233791;1197;139646;-73
2023/01/29 12:39:59;;;;;;;10.20;6.90;;;;;;;1.82;51.81;99673.60;232345;1195;139166;-72
2023/01/29 12:45:09;;;;;;;12.50;6.80;;;;;;;1.82;51.77;99682.00;232486;1194;138227;-68
2023/01/29 12:50:25;;;;;;;11.30;7.60;;;;;;;1.72;51.85;99676.39;233364;1197;139252;-68
2023/01/29 12:55:54;;;;;;;12.90;7.40;;;;;;;1.68;52.04;99677.31;233318;1193;139131;-69
2023/01/29 13:01:14;;;;;;;11.00;7.10;;;;;;;1.61;52.19;99672.34;235129;1195;138335;-69
2023/01/29 13:06:29;;;;;;;13.80;7.50;;;;;;;1.55;52.43;99664.41;234973;1194;138951;-70
2023/01/29 13:11:53;;;;;;;13.80;7.90;;;;;;;1.55;52.63;99661.26;235118;1195;138194;-67
2023/01/29 13:17:09;;;;;;;11.60;6.60;;;;;;;1.58;52.54;99652.13;235040;1194;138420;-69
2023/01/29 13:22:41;;;;;;;14.00;7.50;;;;;;;1.48;52.50;99643.19;234714;1197;139100;-68
2023/01/29 13:27:46;;;;;;;14.10;7.40;;;;;;;1.48;52.92;99639.52;234830;1194;138956;-76
2023/01/29 13:32:53;;;;;;;14.60;7.70;;;;;;;1.52;53.16;99641.72;235369;1194;139519;-67
2023/01/29 13:37:56;;;;;;;10.60;6.40;;;;;;;2.59;68.65;99643.58;234743;1191;138398;-65
2023/01/29 13:43:02;;;;;;;23.60;7.20;;;;;;;5.14;67.59;99629.83;235051;1193;138466;-66
2023/01/29 13:48:20;;;;;;;16.00;8.70;;;;;;;6.26;56.03;99626.25;234293;1193;139503;-74
2023/01/29 13:53:34;;;;;;;14.70;7.40;;;;;;;5.30;47.88;99623.40;232358;1193;138250;-78
2023/01/29 13:58:37;;;;;;;14.20;8.40;;;;;;;4.31;47.90;99619.42;235124;1195;139133;-74
2023/01/29 14:03:43;;;;;;;12.40;7.60;;;;;;;3.66;48.50;99627.11;234059;1193;138457;-75
2023/01/29 14:09:45;;;;;;;13.10;8.10;;;;;;;3.12;49.18;99635.73;234370;1193;138159;-75
2023/01/29 14:14:49;;;;;;;14.90;8.80;;;;;;;2.67;49.58;99629.48;234600;1198;141107;-76
2023/01/29 14:20:02;;;;;;;13.50;8.20;;;;;;;2.53;49.90;99625.05;234979;1194;138573;-75
2023/01/29 14:25:17;;;;;;;17.10;9.00;;;;;;;2.42;50.25;99618.09;233156;1194;138491;-77
2023/01/29 14:30:25;;;;;;;12.90;8.10;;;;;;;2.27;50.18;99604.88;234689;1193;138956;-74
2023/01/29 14:35:32;;;;;;;15.60;8.30;;;;;;;2.05;50.82;99615.81;232330;1193;138808;-77
2023/01/29 14:40:40;;;;;;;17.30;8.80;;;;;;;1.80;51.46;99613.98;233325;1193;138312;-71
2023/01/29 14:45:48;;;;;;;20.00;9.80;;;;;;;1.69;51.82;99618.36;234718;1196;138096;-72
2023/01/29 14:50:58;;;;;;;16.70;9.40;;;;;;;1.62;51.91;99620.56;235390;1193;138991;-74
2023/01/29 14:56:11;;;;;;;16.00;9.20;;;;;;;1.57;52.13;99620.84;235238;1193;138175;-73
2023/01/29 15:01:25;;;;;;;16.20;9.20;;;;;;;1.46;52.24;99617.69;234710;1193;138212;-73
2023/01/29 15:06:42;;;;;;;14.80;8.50;;;;;;;1.41;52.21;99613.56;235659;1193;138040;-75
2023/01/29 15:12:40;;;;;;;17.30;9.40;;;;;;;1.34;52.00;99602.67;234670;1192;139040;-75
2023/01/29 15:17:51;;;;;;;16.40;10.00;;;;;;;1.28;52.25;99600.15;234975;1193;138959;-73
2023/01/29 15:22:56;;;;;;;15.90;9.60;;;;;;;1.24;52.25;99592.86;233320;1197;138657;-72
2023/01/29 15:28:02;;;;;;;18.00;9.70;;;;;;;1.15;52.47;99587.58;232445;1197;138654;-74
2023/01/29 15:33:09;;;;;;;18.00;10.20;;;;;;;1.08;52.68;99578.95;233976;1194;138972;-76
2023/01/29 15:38:18;;;;;;;15.50;9.10;;;;;;;1.02;52.81;99575.89;232791;1193;138749;-72
2023/01/29 15:43:28;;;;;;;16.80;9.50;;;;;;;1.03;52.90;99565.73;234346;1197;138928;-73
2023/01/29 15:48:44;;;;;;;17.90;10.50;;;;;;;1.01;52.90;99576.60;233837;1193;139130;-73
2023/01/29 15:53:50;;;;;;;18.60;9.90;;;;;;;0.90;53.15;99585.48;234854;1194;138425;-73
2023/01/29 15:58:57;;;;;;;18.20;9.70;;;;;;;0.87;53.27;99577.33;234651;1193;138136;-72
2023/01/29 16:04:02;;;;;;;17.30;10.00;;;;;;;0.82;53.48;99570.92;234329;1193;138341;-72
2023/01/29 16:09:10;;;;;;;17.40;10.10;;;;;;;0.87;53.44;99562.30;235208;1197;138932;-71
2023/01/29 16:14:19;;;;;;;22.00;10.10;;;;;;;0.90;53.54;99563.13;234296;1197;138950;-74
2023/01/29 16:19:27;;;;;;;17.30;9.40;;;;;;;0.85;53.65;99563.73;232805;1196;138277;-72
2023/01/29 16:24:35;;;;;;;16.90;9.30;;;;;;;0.82;53.70;99572.67;233801;1197;138106;-72
2023/01/29 16:29:38;;;;;;;19.90;9.80;;;;;;;0.77;53.90;99571.00;229884;1196;138311;-72
2023/01/29 16:34:47;;;;;;;20.10;9.60;;;;;;;0.72;54.05;99573.35;233420;1193;138265;-72
2023/01/29 16:39:53;;;;;;;17.30;9.90;;;;;;;0.78;54.15;99585.85;231633;1197;138305;-72
2023/01/29 16:45:23;;;;;;;19.60;10.30;;;;;;;0.80;54.13;99576.20;232850;1197;138320;-71
2023/01/29 16:50:37;;;;;;;21.60;10.20;;;;;;;0.81;54.16;99581.42;232506;1196;138535;-71
2023/01/29 16:56:07;;;;;;;19.20;10.60;;;;;;;0.81;54.10;99585.98;232598;1193;138185;-73
2023/01/29 17:01:13;;;;;;;18.30;10.60;;;;;;;0.80;54.29;99585.98;234941;1196;139052;-72
2023/01/29 17:06:23;;;;;;;23.30;11.50;;;;;;;0.74;54.28;99571.73;234455;1196;138726;-68
2023/01/29 17:11:40;;;;;;;17.60;11.00;;;;;;;0.73;54.45;99569.14;235037;1193;138497;-71
2023/01/29 17:17:14;;;;;;;21.50;12.00;;;;;;;0.68;54.44;99557.35;234879;1193;139273;-72
2023/01/29 17:22:17;;;;;;;21.30;11.50;;;;;;;0.66;54.43;99555.27;235369;1193;139072;-74
2023/01/29 17:43:33;;;;;;;24.90;13.40;;;;;;;0.56;54.82;99545.61;235998;1196;137902;-72
2023/01/29 17:48:37;;;;;;;26.90;13.80;;;;;;;0.57;55.00;99544.73;233964;1193;139423;-73
2023/01/29 17:53:42;;;;;;;21.80;13.90;;;;;;;0.60;54.95;99542.09;234942;1193;138483;-80
2023/01/29 17:58:49;;;;;;;22.70;14.20;;;;;;;0.70;54.53;99536.88;234121;1194;139363;-74
2023/01/29 18:03:53;;;;;;;26.50;14.10;;;;;;;0.73;54.24;99518.16;234825;1193;138516;-73
2023/01/29 18:08:57;;;;;;;23.30;13.80;;;;;;;0.77;54.13;99509.18;235379;1193;138874;-73
2023/01/29 18:14:00;;;;;;;27.80;14.60;;;;;;;0.78;53.78;99514.77;235211;1193;140935;-76
2023/01/29 18:19:29;;;;;;;24.70;14.60;;;;;;;0.75;53.80;99510.79;235374;1193;138217;-71
2023/01/29 18:24:34;;;;;;;28.00;14.70;;;;;;;0.76;53.93;99512.52;234890;1193;138413;-70
2023/01/29 18:29:38;;;;;;;23.50;13.40;;;;;;;0.75;54.09;99508.70;232802;1196;139470;-82
2023/01/29 18:34:42;;;;;;;26.10;13.60;;;;;;;0.73;53.98;99496.85;234369;1193;138855;-74
2023/01/29 18:39:45;;;;;;;26.30;14.30;;;;;;;0.69;53.98;99490.27;233767;1194;139562;-72
2023/01/29 18:44:49;;;;;;;24.40;13.70;;;;;;;0.72;53.90;99498.27;235634;1193;139028;-73
2023/01/29 18:49:53;;;;;;;25.80;14.60;;;;;;;0.65;53.91;99484.21;233412;1193;138374;-72
2023/01/29 18:54:57;;;;;;;23.60;13.60;;;;;;;0.64;54.04;99488.41;235312;1193;138878;-72
2023/01/29 19:00:01;;;;;;;26.60;14.60;;;;;;;0.67;54.08;99487.16;235164;1194;138653;-72
2023/01/29 19:05:05;;;;;;;27.40;15.60;;;;;;;0.66;54.02;99486.30;235082;1193;139460;-70
2023/01/29 19:10:11;;;;;;;23.80;14.20;;;;;;;0.73;54.09;99477.45;235133;1193;139061;-72
2023/01/29 19:15:19;;;;;;;27.10;14.50;;;;;;;0.72;54.01;99469.98;234653;1193;138396;-69
2023/01/29 19:20:22;;;;;;;23.90;14.00;;;;;;;0.72;54.09;99451.11;235279;1192;139249;-71
2023/01/29 19:25:26;;;;;;;21.20;14.00;;;;;;;0.71;54.05;99439.78;234997;1193;138995;-75
2023/01/29 19:38:10;;;;;;;25.10;13.00;;;;;;;0.65;54.36;99446.67;234520;1192;139061;-76
2023/01/29 19:43:16;;;;;;;23.50;14.20;;;;;;;0.58;54.31;99446.77;235196;1196;138582;-78
2023/01/29 19:48:20;;;;;;;20.40;12.60;;;;;;;0.60;54.51;99448.14;235188;1192;138832;-71
2023/01/29 19:53:26;;;;;;;23.50;13.00;;;;;;;0.55;54.75;99442.48;235195;1193;140024;-72
2023/01/29 19:58:30;;;;;;;24.10;13.60;;;;;;;0.59;54.79;99438.74;233787;1196;138362;-70
2023/01/29 20:03:33;;;;;;;23.10;14.00;;;;;;;0.62;54.70;99428.92;235353;1192;140485;-74
2023/01/29 20:08:37;;;;;;;25.30;13.40;;;;;;;0.64;54.81;99430.45;234313;1193;138527;-73
2023/01/29 20:13:45;;;;;;;26.90;13.90;;;;;;;0.61;54.86;99432.06;234692;1195;139481;-74
2023/01/29 20:18:49;;;;;;;24.40;13.20;;;;;;;0.65;54.85;99423.63;235385;1192;138309;-75
2023/01/29 20:23:53;;;;;;;23.40;13.80;;;;;;;0.64;55.05;99423.80;234266;1193;138293;-71
2023/01/29 20:28:57;;;;;;;26.40;14.20;;;;;;;0.64;55.34;99417.71;234835;1196;138528;-70
2023/01/29 20:34:01;;;;;;;24.60;13.60;;;;;;;0.64;55.43;99407.92;234923;1193;138765;-70
2023/01/29 20:39:07;;;;;;;28.60;14.70;;;;;;;0.64;55.51;99402.87;235546;1192;138290;-70
2023/01/29 20:44:13;;;;;;;28.70;15.40;;;;;;;0.63;55.53;99398.16;234714;1193;139254;-70
2023/01/29 20:49:18;;;;;;;24.80;14.70;;;;;;;0.62;55.62;99398.19;231918;1196;139435;-70
2023/01/29 21:02:04;;;;;;;27.20;14.80;;;;;;;0.58;55.96;99393.36;235905;1193;137799;-70
2023/01/29 21:07:40;;;;;;;28.40;15.70;;;;;;;0.61;56.04;99393.52;235749;1193;138411;-67
2023/01/29 21:12:44;;;;;;;31.20;16.50;;;;;;;0.91;58.57;99384.42;234270;1193;139023;-70
2023/01/29 21:17:49;;;;;;;29.40;15.80;;;;;;;0.91;55.97;99385.65;235505;1192;138391;-73
2023/01/29 21:22:54;;;;;;;26.20;14.80;;;;;;;0.87;56.02;99380.84;235046;1192;138993;-71
2023/01/29 21:28:03;;;;;;;25.40;14.80;;;;;;;0.87;56.13;99378.92;235131;1193;138880;-71
2023/01/29 21:33:07;;;;;;;28.50;15.60;;;;;;;0.85;56.24;99371.25;232531;1196;138356;-71
2023/01/29 21:38:13;;;;;;;30.10;15.00;;;;;;;0.83;56.36;99361.86;232665;1193;138642;-70
2023/01/29 21:43:16;;;;;;;25.80;15.40;;;;;;;0.80;56.59;99350.05;235272;1193;138662;-70
2023/01/29 21:48:19;;;;;;;27.00;15.40;;;;;;;0.82;56.69;99349.66;234308;1193;138635;-69
2023/01/29 21:53:22;;;;;;;25.90;15.30;;;;;;;0.81;56.67;99338.15;233139;1193;139200;-70
2023/01/29 21:58:26;;;;;;;27.10;15.80;;;;;;;0.75;56.93;99329.17;234339;1193;138595;-70
2023/01/29 22:03:29;;;;;;;27.60;14.80;;;;;;;0.70;57.14;99323.52;235196;1193;138672;-70
2023/01/29 22:08:32;;;;;;;28.90;16.40;;;;;;;0.64;57.30;99311.56;235119;1196;138705;-70
2023/01/29 22:13:36;;;;;;;26.10;13.70;;;;;;;0.68;57.49;99306.44;234356;1193;139757;-70
2023/01/29 22:18:39;;;;;;;27.60;15.50;;;;;;;0.61;57.40;99307.94;233190;1194;138667;-70
2023/01/29 22:23:48;;;;;;;27.60;15.50;;;;;;;0.62;57.57;99304.27;232589;1192;138635;-68
2023/01/29 22:28:51;;;;;;;24.20;14.10;;;;;;;0.63;57.69;99297.27;233717;1193;138368;-69
2023/01/29 22:33:54;;;;;;;28.50;15.60;;;;;;;0.63;57.51;99290.81;235268;1192;138612;-68
2023/01/29 22:39:02;;;;;;;29.80;15.10;;;;;;;0.63;57.62;99280.14;234925;1192;138512;-69
2023/01/29 22:44:10;;;;;;;24.90;14.70;;;;;;;0.64;57.58;99267.38;235282;1193;139043;-69
2023/01/29 22:49:13;;;;;;;30.00;15.30;;;;;;;0.65;57.49;99257.60;234021;1192;139113;-71
2023/01/29 22:54:17;;;;;;;27.70;14.90;;;;;;;0.64;57.47;99250.98;232864;1193;139992;-69
2023/01/29 22:59:20;;;;;;;27.40;14.80;;;;;;;0.59;57.45;99243.73;231588;1196;139191;-69
2023/01/29 23:04:23;;;;;;;25.60;14.60;;;;;;;0.62;57.53;99237.42;234144;1193;138319;-70
2023/01/29 23:09:27;;;;;;;28.80;15.50;;;;;;;0.61;57.37;99234.28;234149;1192;138644;-70
2023/01/29 23:14:30;;;;;;;27.20;15.20;;;;;;;0.64;57.47;99229.34;232659;1192;138706;-71
2023/01/29 23:19:33;;;;;;;26.60;14.30;;;;;;;0.67;57.25;99225.96;233710;1193;138949;-71
2023/01/29 23:24:37;;;;;;;25.80;14.50;;;;;;;0.68;57.16;99220.01;234195;1192;138424;-69
2023/01/29 23:29:42;;;;;;;24.00;14.20;;;;;;;0.69;57.04;99215.27;232958;1194;139323;-69
2023/01/29 23:34:46;;;;;;;16.80;9.80;;;;;;;0.74;56.94;99211.00;232404;1193;139323;-69
2023/01/29 23:39:49;;;;;;;26.90;14.80;;;;;;;0.78;56.62;99212.65;233344;1192;138558;-70
2023/01/29 23:44:53;;;;;;;24.10;13.00;;;;;;;0.83;56.38;99196.16;234441;1193;138548;-71
2023/01/29 23:49:56;;;;;;;21.60;12.70;;;;;;;0.81;56.26;99186.41;232038;1193;138404;-70
2023/01/29 23:54:59;;;;;;;23.20;13.50;;;;;;;0.85;56.14;99169.71;232218;1192;138969;-70
